Time;durP1;ratioP1;P1;durP2;ratioP2;P2;SDS_P1;SDS_P2;PMS_P1;PMS_P2;Temp;Humidity;BMP_temperature;BMP_pressure;BME280_temperature;BME280_humidity;BME280_pressure;Samples;Min_cycle;Max_cycle;Signal;HPM_P1;HPM_P2
2022/08/06 11:43:49;;;;;;;3.42;0.60;;;23.20;99.90;;;;;;2599627;54;20800;31
2022/08/06 11:46:36;;;;;;;1.85;0.60;;;23.40;99.90;;;;;;2602449;54;20048;31
2022/08/06 11:49:22;;;;;;;2.22;0.60;;;23.50;99.90;;;;;;2621128;46;20812;31
2022/08/06 11:51:57;;;;;;;4.97;0.80;;;23.60;99.90;;;;;;2602376;54;20913;31
2022/08/06 11:55:04;;;;;;;2.83;0.55;;;23.60;99.90;;;;;;2602337;54;20065;31
2022/08/06 11:57:41;;;;;;;3.70;0.60;;;23.70;99.90;;;;;;2602905;54;20108;31
2022/08/06 12:00:25;;;;;;;3.55;1.10;;;23.80;99.90;;;;;;2603957;54;19950;31
2022/08/06 12:02:59;;;;;;;1.92;0.65;;;23.90;99.90;;;;;;2603709;54;20962;31
2022/08/06 12:05:41;;;;;;;1.77;0.50;;;24.00;99.90;;;;;;2603780;54;20022;31
2022/08/06 12:08:32;;;;;;;4.38;1.42;;;24.00;99.90;;;;;;2603892;54;20022;31
2022/08/06 12:11:32;;;;;;;2.30;0.50;;;23.90;99.90;;;;;;2603659;54;20863;31
2022/08/06 12:14:42;;;;;;;0.75;0.25;;;23.90;99.90;;;;;;2603791;54;20022;31
2022/08/06 12:17:28;;;;;;;2.47;0.47;;;23.90;99.90;;;;;;2603740;54;20161;31
2022/08/06 12:20:31;;;;;;;3.53;0.50;;;24.00;99.90;;;;;;2603674;54;20034;31
2022/08/06 12:23:19;;;;;;;1.80;0.40;;;24.20;99.90;;;;;;2603871;54;20033;31
2022/08/06 12:25:58;;;;;;;1.95;0.40;;;24.10;99.90;;;;;;2603784;54;20042;31
2022/08/06 12:28:35;;;;;;;2.83;0.52;;;24.00;99.90;;;;;;2603587;54;20723;31
2022/08/06 12:31:10;;;;;;;3.07;0.70;;;23.90;99.90;;;;;;2604053;54;20030;31
2022/08/06 12:34:06;;;;;;;1.00;0.45;;;23.80;99.90;;;;;;2603436;54;20309;31
2022/08/06 12:36:39;;;;;;;;;;;23.60;99.90;;;;;;2604058;54;20050;31
2022/08/06 12:39:18;;;;;;;1.35;0.50;;;23.60;99.90;;;;;;2701949;39;21188;31
2022/08/06 12:42:12;;;;;;;4.85;0.70;;;23.60;99.90;;;;;;2603594;54;20097;31
2022/08/06 12:44:47;;;;;;;2.10;0.47;;;23.70;99.90;;;;;;2603676;54;20874;31
2022/08/06 12:47:31;;;;;;;2.20;0.77;;;23.70;99.90;;;;;;2603589;54;20026;31
2022/08/06 12:50:28;;;;;;;1.80;0.60;;;23.70;99.90;;;;;;2603663;54;20081;31
2022/08/06 12:53:06;;;;;;;2.10;0.65;;;23.60;99.90;;;;;;2604018;54;20794;31
2022/08/06 12:55:45;;;;;;;1.75;0.60;;;23.40;99.90;;;;;;2603677;54;20049;31
2022/08/06 12:58:32;;;;;;;1.42;0.63;;;23.40;99.90;;;;;;2603825;54;20919;31
2022/08/06 13:01:17;;;;;;;1.88;0.57;;;23.50;99.90;;;;;;2608677;46;20879;31
2022/08/06 13:04:12;;;;;;;1.60;0.60;;;23.60;99.90;;;;;;2603720;54;20023;31
2022/08/06 13:06:52;;;;;;;1.20;0.50;;;23.60;99.90;;;;;;2603710;54;20109;31
2022/08/06 13:09:32;;;;;;;3.65;0.55;;;23.70;99.90;;;;;;2603486;54;20755;31
2022/08/06 13:12:15;;;;;;;1.38;0.60;;;23.60;99.90;;;;;;2603495;54;20085;31
2022/08/06 13:15:00;;;;;;;1.90;0.40;;;23.50;99.90;;;;;;2610101;39;22169;31
2022/08/06 13:18:03;;;;;;;3.37;0.50;;;23.50;99.90;;;;;;2603675;54;20030;31
2022/08/06 13:20:58;;;;;;;4.43;1.70;;;23.30;99.90;;;;;;2603676;54;20026;31
2022/08/06 13:23:38;;;;;;;1.52;0.88;;;23.20;99.90;;;;;;2603870;54;20255;31
2022/08/06 13:26:19;;;;;;;1.95;0.80;;;23.20;99.90;;;;;;2603599;54;20085;31
2022/08/06 13:29:09;;;;;;;3.40;0.98;;;22.90;99.90;;;;;;2603552;54;20065;31
2022/08/06 13:32:08;;;;;;;1.58;0.70;;;22.90;99.90;;;;;;2603518;54;20878;31
2022/08/06 13:35:04;;;;;;;1.15;0.60;;;22.80;99.90;;;;;;2603495;54;20142;31
2022/08/06 13:37:47;;;;;;;2.00;0.70;;;22.80;99.90;;;;;;2603802;54;20034;31
2022/08/06 13:40:45;;;;;;;1.85;0.40;;;22.70;99.90;;;;;;2603686;54;20060;31
2022/08/06 13:43:36;;;;;;;2.95;0.55;;;22.70;99.90;;;;;;2603677;54;20902;31
2022/08/06 13:46:14;;;;;;;5.25;0.50;;;22.60;99.90;;;;;;2603511;54;20542;31
2022/08/06 13:48:54;;;;;;;3.60;0.70;;;22.70;99.90;;;;;;2701903;39;20477;31
2022/08/06 13:51:32;;;;;;;2.05;0.75;;;22.80;99.90;;;;;;2603466;54;20093;31
2022/08/06 13:54:08;;;;;;;1.60;0.40;;;22.90;99.90;;;;;;2603607;54;20053;31
2022/08/06 13:56:54;;;;;;;2.03;0.88;;;23.00;99.90;;;;;;2603372;54;20073;31
2022/08/06 13:59:30;;;;;;;2.88;0.68;;;23.00;99.90;;;;;;2603469;54;20457;31
2022/08/06 14:02:15;;;;;;;1.50;0.50;;;22.90;99.90;;;;;;2622472;46;20089;31
2022/08/06 14:04:50;;;;;;;5.17;0.67;;;22.90;99.90;;;;;;2621941;46;20081;31
2022/08/06 14:07:24;;;;;;;2.00;0.63;;;22.90;99.90;;;;;;2603492;54;20026;31
2022/08/06 14:10:05;;;;;;;4.00;1.08;;;22.90;99.90;;;;;;2603293;54;20038;31
2022/08/06 14:13:15;;;;;;;1.73;0.80;;;22.90;99.90;;;;;;2603202;54;20907;31
2022/08/06 14:15:42;;;;;;;1.35;0.50;;;22.90;99.90;;;;;;2603233;54;20053;31
2022/08/06 14:18:18;;;;;;;1.17;0.50;;;22.90;99.90;;;;;;2603302;54;20038;31
2022/08/06 14:20:52;;;;;;;2.07;0.57;;;23.00;99.90;;;;;;2613126;39;20497;31
2022/08/06 14:23:26;;;;;;;2.17;0.73;;;23.00;99.90;;;;;;2603430;54;20812;31
2022/08/06 14:26:19;;;;;;;1.10;0.60;;;23.00;99.90;;;;;;2603290;54;19941;31
2022/08/06 14:29:03;;;;;;;1.45;0.80;;;23.00;99.90;;;;;;2609619;39;20885;31
2022/08/06 14:31:57;;;;;;;2.90;0.70;;;23.00;99.90;;;;;;2603286;54;20628;31
2022/08/06 14:34:32;;;;;;;3.70;0.70;;;22.80;99.90;;;;;;2603514;54;20842;31
2022/08/06 14:37:10;;;;;;;1.20;0.50;;;22.70;99.90;;;;;;2603468;54;20057;31
2022/08/06 14:39:47;;;;;;;2.58;0.55;;;22.70;99.90;;;;;;2603344;54;20856;31
2022/08/06 14:45:24;;;;;;;4.03;0.50;;;22.80;99.90;;;;;;2621615;46;20097;31
2022/08/06 14:48:03;;;;;;;1.97;0.60;;;22.90;99.90;;;;;;2603398;54;20033;31
2022/08/06 14:50:37;;;;;;;1.77;0.30;;;23.00;99.90;;;;;;2604295;47;20022;31
2022/08/06 14:53:15;;;;;;;2.15;0.40;;;23.10;99.90;;;;;;2605768;47;20107;31
2022/08/06 14:55:49;;;;;;;1.10;0.30;;;23.10;99.90;;;;;;2603362;54;19935;31
2022/08/06 14:58:41;;;;;;;2.40;0.77;;;23.20;99.90;;;;;;2603948;54;20050;31
2022/08/06 15:01:19;;;;;;;4.10;0.65;;;23.20;99.90;;;;;;2604058;54;20231;31
2022/08/06 15:03:54;;;;;;;3.05;0.65;;;23.20;99.90;;;;;;2604253;54;20019;31
2022/08/06 15:06:28;;;;;;;3.45;0.70;;;23.20;99.90;;;;;;2604005;54;20116;31
2022/08/06 15:09:09;;;;;;;2.45;0.40;;;23.30;99.90;;;;;;2622842;46;20980;31
2022/08/06 15:11:45;;;;;;;0.88;0.25;;;23.20;99.90;;;;;;2604690;46;20841;31
2022/08/06 15:14:34;;;;;;;1.27;0.50;;;23.10;99.90;;;;;;2604053;54;20516;31
2022/08/06 15:17:14;;;;;;;1.13;0.30;;;23.10;99.90;;;;;;2604260;54;20859;31
2022/08/06 15:20:09;;;;;;;1.50;0.20;;;23.00;99.90;;;;;;2622165;46;21769;31
2022/08/06 15:22:45;;;;;;;2.55;0.40;;;22.80;99.90;;;;;;2617488;46;19942;31
2022/08/06 15:25:24;;;;;;;1.50;0.30;;;22.80;99.90;;;;;;2603829;54;20026;31
2022/08/06 15:28:18;;;;;;;0.90;0.30;;;22.80;99.90;;;;;;2603862;54;20899;31
2022/08/06 15:30:53;;;;;;;0.40;0.27;;;22.80;99.90;;;;;;2603779;54;20101;31
2022/08/06 15:33:35;;;;;;;2.58;0.30;;;22.80;99.90;;;;;;2603841;54;20026;31
2022/08/06 15:36:10;;;;;;;2.10;0.40;;;22.80;99.90;;;;;;2603754;54;20828;31
2022/08/06 15:38:46;;;;;;;1.63;0.30;;;22.90;99.90;;;;;;2608918;46;20022;31
2022/08/06 15:41:23;;;;;;;0.80;0.30;;;22.90;99.90;;;;;;2613891;46;20029;31
2022/08/06 15:43:57;;;;;;;0.60;0.30;;;22.90;99.90;;;;;;2603896;54;21226;31
2022/08/06 15:46:32;;;;;;;0.82;0.25;;;23.00;99.90;;;;;;2604005;54;20022;31
2022/08/06 15:49:10;;;;;;;2.63;0.70;;;22.90;99.90;;;;;;2603845;54;20018;31
2022/08/06 15:51:44;;;;;;;1.52;0.40;;;22.90;99.90;;;;;;2605927;54;20018;31
2022/08/06 15:54:32;;;;;;;0.40;0.20;;;23.00;99.90;;;;;;2603800;54;20308;31
2022/08/06 15:57:11;;;;;;;1.85;0.28;;;23.10;99.90;;;;;;2622662;46;20092;31
2022/08/06 15:59:50;;;;;;;1.27;0.30;;;23.20;99.90;;;;;;2604036;54;20033;31
2022/08/06 16:02:25;;;;;;;0.60;0.30;;;23.30;99.90;;;;;;2604701;46;20025;31
2022/08/06 16:05:12;;;;;;;2.05;0.40;;;23.20;99.90;;;;;;2603728;54;20520;31
2022/08/06 16:08:06;;;;;;;1.63;0.22;;;23.20;99.90;;;;;;2603710;54;20580;31
2022/08/06 16:10:43;;;;;;;2.47;0.40;;;23.00;99.90;;;;;;2603650;54;20998;31
2022/08/06 16:13:20;;;;;;;1.50;0.40;;;23.00;99.90;;;;;;2603868;54;20099;31
2022/08/06 16:15:54;;;;;;;3.03;0.30;;;22.90;99.90;;;;;;2603894;54;20102;31
2022/08/06 16:18:30;;;;;;;2.08;0.40;;;22.90;99.90;;;;;;2603929;54;20920;31
2022/08/06 16:21:08;;;;;;;2.05;0.40;;;22.90;99.90;;;;;;2622303;46;20474;31
2022/08/06 16:23:44;;;;;;;2.00;0.40;;;22.80;99.90;;;;;;2604401;46;20022;31
2022/08/06 16:26:31;;;;;;;1.13;0.25;;;22.70;99.90;;;;;;2603591;54;20042;31
2022/08/06 16:29:26;;;;;;;0.70;0.30;;;22.70;99.90;;;;;;2702295;39;20537;31
2022/08/06 16:32:02;;;;;;;0.40;0.20;;;22.70;99.90;;;;;;2606630;46;20881;31
2022/08/06 16:34:36;;;;;;;2.15;0.20;;;22.60;99.90;;;;;;2603762;54;20027;31
2022/08/06 16:37:13;;;;;;;2.85;0.40;;;22.60;99.90;;;;;;2603838;54;19934;31
2022/08/06 16:40:08;;;;;;;1.17;0.65;;;22.60;99.90;;;;;;2603669;54;20027;31
2022/08/06 16:42:42;;;;;;;1.17;0.30;;;22.60;99.90;;;;;;2603777;54;20023;31
2022/08/06 16:45:17;;;;;;;0.80;0.22;;;22.60;99.90;;;;;;2603950;54;20029;31
2022/08/06 16:47:52;;;;;;;1.87;0.20;;;22.50;99.90;;;;;;2603880;54;20034;31
2022/08/06 16:50:47;;;;;;;2.23;0.23;;;22.50;99.90;;;;;;2603665;54;20057;31
2022/08/06 16:53:27;;;;;;;3.47;0.30;;;22.50;99.90;;;;;;2603909;54;20023;31
2022/08/06 16:56:22;;;;;;;1.45;0.30;;;22.50;99.90;;;;;;2603805;54;20872;31
2022/08/06 16:58:56;;;;;;;2.15;0.35;;;22.40;99.90;;;;;;2707469;39;20547;31
2022/08/06 17:01:31;;;;;;;2.25;0.40;;;22.40;99.90;;;;;;2603472;54;20068;31
2022/08/06 17:04:26;;;;;;;1.88;0.22;;;22.40;99.90;;;;;;2603618;54;20845;31
2022/08/06 17:07:06;;;;;;;3.30;0.30;;;22.40;99.90;;;;;;2603866;54;20027;31
2022/08/06 17:09:42;;;;;;;1.10;0.32;;;22.40;99.90;;;;;;2603548;54;20089;31
2022/08/06 17:12:21;;;;;;;1.43;0.20;;;22.30;99.90;;;;;;2609976;39;20929;31
2022/08/06 17:14:59;;;;;;;1.30;0.50;;;22.40;99.90;;;;;;2603558;54;20568;31
2022/08/06 17:17:48;;;;;;;1.65;0.50;;;22.30;99.90;;;;;;2603790;54;20051;31
2022/08/06 17:20:23;;;;;;;1.65;0.40;;;22.30;99.90;;;;;;2604050;46;20038;31
2022/08/06 17:23:01;;;;;;;1.55;0.20;;;22.30;99.90;;;;;;2603858;54;20061;31
2022/08/06 17:25:38;;;;;;;2.50;0.43;;;22.30;99.90;;;;;;2609838;39;21143;31
2022/08/06 17:28:32;;;;;;;4.07;0.50;;;22.20;99.70;;;;;;2603665;54;20929;31
2022/08/06 17:31:07;;;;;;;0.60;0.30;;;22.10;99.90;;;;;;2701722;39;20445;31
2022/08/06 17:34:01;;;;;;;2.77;0.20;;;22.10;99.90;;;;;;2603484;54;20049;31
2022/08/06 17:36:37;;;;;;;1.50;0.22;;;22.10;99.90;;;;;;2603641;54;20027;31
2022/08/06 17:39:24;;;;;;;1.23;0.20;;;22.00;99.90;;;;;;2603418;54;20929;31
2022/08/06 17:42:14;;;;;;;1.35;0.30;;;22.00;99.90;;;;;;2603595;54;20105;31
2022/08/06 17:44:52;;;;;;;1.65;0.40;;;22.00;99.90;;;;;;2702133;39;20517;31
2022/08/06 17:47:26;;;;;;;2.42;0.40;;;21.90;99.90;;;;;;2609907;39;21050;31
2022/08/06 17:50:20;;;;;;;2.33;0.38;;;21.90;99.90;;;;;;2720714;39;20543;31
2022/08/06 17:53:13;;;;;;;1.47;0.50;;;21.80;99.90;;;;;;2603654;54;20023;31
2022/08/06 17:55:54;;;;;;;2.35;0.65;;;21.70;99.90;;;;;;2603337;54;19950;31
2022/08/06 17:58:37;;;;;;;2.80;0.50;;;21.70;99.90;;;;;;2603801;54;20030;31
2022/08/06 18:01:28;;;;;;;2.15;0.30;;;21.60;99.90;;;;;;2603545;54;20931;31
2022/08/06 18:04:18;;;;;;;1.35;0.35;;;21.60;99.90;;;;;;2603555;54;20034;31
2022/08/06 18:07:01;;;;;;;1.88;0.40;;;21.60;99.90;;;;;;2603506;54;20057;31
2022/08/06 18:12:47;;;;;;;4.45;0.80;;;21.50;99.90;;;;;;2603330;54;20084;31
2022/08/06 18:15:25;;;;;;;5.03;0.55;;;21.40;99.90;;;;;;2603222;54;20077;31
2022/08/06 18:18:14;;;;;;;2.40;0.43;;;21.30;99.90;;;;;;2603356;54;20026;31
2022/08/06 18:20:52;;;;;;;1.20;0.50;;;21.20;99.90;;;;;;2603483;54;20023;31
2022/08/06 18:23:26;;;;;;;1.40;0.50;;;21.20;99.90;;;;;;2603170;54;20057;31
2022/08/06 18:26:08;;;;;;;3.28;0.55;;;21.10;99.90;;;;;;2603287;54;20053;31
2022/08/06 18:28:50;;;;;;;2.72;1.02;;;21.10;99.90;;;;;;2603235;54;20026;31
2022/08/06 18:31:28;;;;;;;2.87;0.90;;;21.00;99.90;;;;;;2604048;46;20941;31
2022/08/06 18:34:22;;;;;;;2.53;0.65;;;20.80;99.90;;;;;;2621936;47;20604;31
2022/08/06 18:37:02;;;;;;;3.92;0.82;;;20.80;99.90;;;;;;2603408;54;21310;31
2022/08/06 18:39:53;;;;;;;4.35;1.00;;;20.60;99.90;;;;;;2603470;54;20026;31
2022/08/06 18:42:48;;;;;;;1.52;0.60;;;20.50;99.90;;;;;;2603392;54;20022;31
2022/08/06 18:45:30;;;;;;;4.40;0.95;;;20.30;99.90;;;;;;2603452;54;20046;31
2022/08/06 18:48:12;;;;;;;2.10;1.05;;;20.20;99.90;;;;;;2603522;54;20055;31
2022/08/06 18:50:55;;;;;;;4.03;0.73;;;20.10;99.90;;;;;;2603138;54;20244;31
2022/08/06 18:53:29;;;;;;;1.87;0.60;;;20.00;99.90;;;;;;2603249;54;20053;31
2022/08/06 18:56:23;;;;;;;5.60;0.90;;;19.90;99.90;;;;;;2603412;54;20034;31
2022/08/06 18:58:57;;;;;;;3.17;0.75;;;19.80;99.90;;;;;;2628120;39;21193;31
2022/08/06 19:01:32;;;;;;;6.82;0.95;;;19.70;99.90;;;;;;2603174;54;20053;31
2022/08/06 19:04:11;;;;;;;1.77;1.10;;;19.70;99.90;;;;;;2621853;47;20061;31
2022/08/06 19:06:51;;;;;;;2.47;1.00;;;19.50;99.90;;;;;;2621956;47;20053;31
2022/08/06 19:09:23;;;;;;;3.15;0.70;;;19.50;99.90;;;;;;2603340;54;20045;31
2022/08/06 19:12:07;;;;;;;1.97;0.87;;;19.30;99.90;;;;;;2603090;54;20026;31
2022/08/06 19:14:47;;;;;;;3.00;0.90;;;19.30;99.90;;;;;;2603130;54;21106;31
2022/08/06 19:17:23;;;;;;;2.30;1.00;;;19.20;99.90;;;;;;2603199;54;20884;31
2022/08/06 19:20:20;;;;;;;1.58;0.80;;;19.10;99.90;;;;;;2603220;54;20053;31
2022/08/06 19:23:02;;;;;;;2.25;0.85;;;19.10;99.90;;;;;;2621369;47;19961;31
2022/08/06 19:25:40;;;;;;;6.82;1.00;;;19.00;99.90;;;;;;2603268;54;20057;31
2022/08/06 19:28:34;;;;;;;2.45;0.98;;;19.00;99.90;;;;;;2603210;54;20049;31
2022/08/06 19:31:25;;;;;;;2.10;1.05;;;18.90;99.90;;;;;;2603143;54;20033;31
2022/08/06 19:34:17;;;;;;;3.65;1.15;;;18.90;99.90;;;;;;2603318;54;20827;31
2022/08/06 19:36:55;;;;;;;3.17;1.83;;;18.80;99.90;;;;;;2603006;54;20023;31
2022/08/06 19:39:36;;;;;;;3.23;1.23;;;18.70;99.90;;;;;;2603177;54;20042;31
2022/08/06 19:42:31;;;;;;;3.33;1.38;;;18.70;99.90;;;;;;2621642;47;19934;31
2022/08/06 19:45:06;;;;;;;3.30;1.70;;;18.70;99.90;;;;;;2603893;54;20113;31
2022/08/06 19:47:50;;;;;;;8.57;2.35;;;18.60;99.90;;;;;;2603855;54;20029;31
2022/08/06 19:50:25;;;;;;;6.43;2.92;;;18.60;99.90;;;;;;2603868;54;20027;31
2022/08/06 19:53:03;;;;;;;6.82;2.60;;;18.50;99.90;;;;;;2622118;46;20576;31
2022/08/06 19:55:46;;;;;;;9.05;3.30;;;18.40;99.90;;;;;;2603961;54;20022;31
2022/08/06 19:58:41;;;;;;;8.60;2.97;;;18.40;99.90;;;;;;2603977;54;20053;31
2022/08/06 20:01:18;;;;;;;8.98;2.42;;;18.30;99.90;;;;;;2603765;54;20038;31
2022/08/06 20:04:08;;;;;;;10.93;3.67;;;18.20;99.90;;;;;;2603964;54;20860;31
2022/08/06 20:06:50;;;;;;;11.43;4.85;;;18.10;99.90;;;;;;2603934;54;20089;31
2022/08/06 20:09:47;;;;;;;9.00;5.72;;;18.00;99.90;;;;;;2603761;54;20050;31
2022/08/06 20:12:39;;;;;;;7.45;5.10;;;18.00;99.90;;;;;;2603740;54;20845;31
2022/08/06 20:15:19;;;;;;;7.75;3.85;;;17.90;99.90;;;;;;2603754;54;20776;31
2022/08/06 20:18:02;;;;;;;4.68;3.28;;;17.90;99.90;;;;;;2622005;46;20093;31
2022/08/06 20:20:37;;;;;;;;;;;17.80;99.90;;;;;;2603912;54;20121;31
2022/08/06 20:23:14;;;;;;;7.63;3.20;;;17.80;99.90;;;;;;2603776;54;19980;31
2022/08/06 20:25:56;;;;;;;7.55;3.00;;;17.70;99.90;;;;;;2621903;46;20033;31
2022/08/06 20:28:52;;;;;;;5.75;2.67;;;17.50;99.90;;;;;;2603703;54;20938;31
2022/08/06 20:31:49;;;;;;;4.93;2.87;;;17.50;99.90;;;;;;2622425;46;20034;31
2022/08/06 20:34:33;;;;;;;9.45;3.60;;;17.50;99.90;;;;;;2603663;54;19950;31
2022/08/06 20:37:08;;;;;;;5.30;3.03;;;17.40;99.90;;;;;;2603820;54;20026;31
2022/08/06 20:39:46;;;;;;;7.85;4.00;;;17.40;99.90;;;;;;2603664;54;20984;31
2022/08/06 20:42:31;;;;;;;6.72;4.03;;;17.40;99.90;;;;;;2621916;46;20030;31
2022/08/06 20:45:10;;;;;;;6.25;4.00;;;17.30;99.90;;;;;;2603604;54;20154;31
2022/08/06 20:48:06;;;;;;;6.90;3.50;;;17.20;99.90;;;;;;2603759;54;20058;31
2022/08/06 20:50:42;;;;;;;6.83;4.00;;;17.20;99.90;;;;;;2603721;54;20149;31
2022/08/06 20:53:21;;;;;;;5.50;3.88;;;17.20;99.90;;;;;;2603653;54;20057;31
2022/08/06 20:56:04;;;;;;;7.35;4.20;;;17.20;99.90;;;;;;2720765;39;21026;31
2022/08/06 20:58:41;;;;;;;5.72;3.50;;;17.20;99.90;;;;;;2603484;54;20080;31
2022/08/06 21:01:18;;;;;;;9.20;4.13;;;17.00;99.90;;;;;;2618007;46;20052;31
2022/08/06 21:03:53;;;;;;;7.63;4.05;;;17.00;99.90;;;;;;2628599;39;21054;31
2022/08/06 21:06:48;;;;;;;6.00;3.65;;;16.90;99.90;;;;;;2603627;54;21012;31
2022/08/06 21:09:27;;;;;;;5.00;3.55;;;16.80;99.90;;;;;;2603817;54;20853;31
2022/08/06 21:12:09;;;;;;;6.88;3.97;;;16.70;99.90;;;;;;2603693;54;20057;31
2022/08/06 21:14:47;;;;;;;6.68;3.35;;;16.70;99.90;;;;;;2603808;54;20018;31
2022/08/06 21:17:25;;;;;;;5.47;2.67;;;16.60;99.90;;;;;;2621722;46;20739;31
2022/08/06 21:20:09;;;;;;;5.72;2.70;;;16.50;99.90;;;;;;2621967;46;20145;31
2022/08/06 21:22:51;;;;;;;5.93;3.20;;;16.50;99.90;;;;;;2603146;54;20986;31
2022/08/06 21:25:29;;;;;;;7.67;2.60;;;16.50;99.90;;;;;;2603560;54;20506;31
2022/08/06 21:28:18;;;;;;;8.65;2.45;;;16.40;99.90;;;;;;2603592;54;20137;31
2022/08/06 21:30:58;;;;;;;6.18;3.30;;;16.50;99.90;;;;;;2603534;54;20046;31
2022/08/06 21:33:34;;;;;;;5.32;2.58;;;16.40;99.90;;;;;;2603215;54;20053;31
2022/08/06 21:36:15;;;;;;;3.78;2.30;;;16.40;99.90;;;;;;2603458;54;20027;31
2022/08/06 21:38:53;;;;;;;6.22;2.72;;;16.40;99.90;;;;;;2603891;54;20799;31
2022/08/06 21:41:30;;;;;;;4.75;2.22;;;16.40;99.90;;;;;;2603397;54;20042;31
2022/08/06 21:44:25;;;;;;;4.18;2.20;;;16.40;99.90;;;;;;2603409;54;20053;31
2022/08/06 21:47:07;;;;;;;4.53;2.00;;;16.40;99.90;;;;;;2603554;54;20813;31
2022/08/06 21:49:42;;;;;;;4.63;2.33;;;16.30;99.90;;;;;;2603520;54;20030;31
2022/08/06 21:52:34;;;;;;;3.88;2.00;;;16.30;99.90;;;;;;2603552;54;20906;31
2022/08/06 21:55:13;;;;;;;10.05;2.25;;;16.30;99.90;;;;;;2603404;54;20906;31
2022/08/06 21:58:05;;;;;;;3.57;2.13;;;16.30;99.90;;;;;;2603436;54;22229;31
2022/08/06 22:00:46;;;;;;;4.87;1.87;;;16.20;99.90;;;;;;2720165;39;20500;31
2022/08/06 22:03:30;;;;;;;3.75;1.95;;;16.20;99.90;;;;;;2603318;54;20881;31
2022/08/06 22:06:27;;;;;;;3.25;1.60;;;16.10;99.90;;;;;;2603433;54;20100;31
2022/08/06 22:09:13;;;;;;;2.85;1.05;;;16.10;99.90;;;;;;2622264;46;20061;31
2022/08/06 22:11:53;;;;;;;3.40;1.07;;;16.00;99.90;;;;;;2603259;54;20026;31
2022/08/06 22:14:48;;;;;;;3.30;1.20;;;16.00;99.90;;;;;;2603254;54;20031;31
2022/08/06 22:17:24;;;;;;;4.05;1.10;;;16.00;99.90;;;;;;2603317;54;20045;31
2022/08/06 22:20:18;;;;;;;1.50;0.80;;;15.90;99.90;;;;;;2603332;54;20561;31
2022/08/06 22:22:58;;;;;;;3.67;1.25;;;15.90;99.90;;;;;;2621686;46;20031;31
2022/08/06 22:25:37;;;;;;;4.63;1.20;;;15.90;99.90;;;;;;2602642;54;20853;31
2022/08/06 22:28:16;;;;;;;3.10;1.00;;;15.90;99.90;;;;;;2621694;46;20031;31
2022/08/06 22:31:08;;;;;;;3.10;0.95;;;15.90;99.90;;;;;;2603390;54;20910;31
2022/08/06 22:33:43;;;;;;;;;;;15.90;99.90;;;;;;2603464;54;20030;31
2022/08/06 22:36:31;;;;;;;2.47;0.80;;;15.90;99.90;;;;;;2621979;46;19935;31
2022/08/06 22:39:12;;;;;;;2.45;0.70;;;16.00;99.90;;;;;;2603302;54;20096;31
2022/08/06 22:41:48;;;;;;;1.42;0.70;;;15.90;99.90;;;;;;2603401;54;20042;31
2022/08/06 22:44:40;;;;;;;2.40;0.90;;;16.00;99.90;;;;;;2603390;54;20026;31
2022/08/06 22:47:35;;;;;;;2.72;0.73;;;15.90;99.90;;;;;;2621716;46;20139;31
2022/08/06 22:50:14;;;;;;;1.95;0.80;;;15.90;99.90;;;;;;2720313;39;20473;31
2022/08/06 22:52:56;;;;;;;2.80;0.70;;;15.80;99.90;;;;;;2622289;47;20046;31
2022/08/06 22:55:53;;;;;;;4.55;1.10;;;15.90;99.90;;;;;;2603084;54;20034;31
2022/08/06 22:58:30;;;;;;;3.17;0.88;;;15.80;99.90;;;;;;2603389;54;20858;31
2022/08/06 23:01:24;;;;;;;3.53;0.80;;;15.90;99.90;;;;;;2603154;54;20574;31
2022/08/06 23:04:21;;;;;;;1.10;0.60;;;15.80;99.90;;;;;;2603147;54;20035;31
2022/08/06 23:07:00;;;;;;;3.10;0.88;;;15.80;99.90;;;;;;2603137;54;20950;31
2022/08/06 23:09:42;;;;;;;5.18;0.70;;;15.80;99.90;;;;;;2603224;54;20147;31
2022/08/06 23:12:28;;;;;;;2.13;0.90;;;15.80;99.90;;;;;;2603077;54;20026;31
2022/08/06 23:15:12;;;;;;;1.75;0.95;;;15.70;99.90;;;;;;2603058;54;20894;31
2022/08/06 23:18:05;;;;;;;3.60;0.90;;;15.80;99.90;;;;;;2603227;54;20053;31
2022/08/06 23:20:42;;;;;;;3.92;0.80;;;15.70;99.90;;;;;;2702562;39;20544;31
2022/08/06 23:23:17;;;;;;;3.60;0.80;;;15.80;99.90;;;;;;2603981;54;20857;31
2022/08/06 23:25:52;;;;;;;4.28;0.70;;;15.80;99.90;;;;;;2603775;54;20077;31
2022/08/06 23:28:38;;;;;;;3.47;0.75;;;15.80;99.90;;;;;;2603877;54;20056;31
2022/08/06 23:31:19;;;;;;;4.07;0.98;;;15.70;99.90;;;;;;2604181;54;20867;31
2022/08/06 23:33:55;;;;;;;2.15;0.60;;;15.80;99.90;;;;;;2603861;54;20634;31
2022/08/06 23:36:33;;;;;;;1.58;0.70;;;15.80;99.90;;;;;;2702386;39;20504;31
2022/08/06 23:39:08;;;;;;;2.88;0.70;;;15.80;99.90;;;;;;2702361;39;20534;31
2022/08/06 23:41:53;;;;;;;4.72;1.20;;;15.80;99.90;;;;;;2604106;54;20081;31
2022/08/06 23:44:37;;;;;;;2.80;0.60;;;15.80;99.90;;;;;;2603876;54;20473;31
2022/08/06 23:47:22;;;;;;;1.30;0.60;;;15.90;99.90;;;;;;2603808;54;20192;31
2022/08/06 23:50:17;;;;;;;7.88;0.80;;;15.90;99.90;;;;;;2603794;54;20082;31
2022/08/06 23:53:01;;;;;;;5.65;1.15;;;15.90;99.90;;;;;;2603805;54;20046;31
2022/08/06 23:55:40;;;;;;;4.20;1.23;;;15.90;99.90;;;;;;2603699;54;20057;31
2022/08/06 23:58:33;;;;;;;2.80;0.70;;;15.90;99.90;;;;;;2622524;46;20161;31
